createdAt,value
2022-11-30T00:02:30.475Z,4.40
2022-11-30T00:05:02.181Z,4.33
2022-11-30T00:07:43.082Z,4.30
2022-11-30T00:10:15.252Z,4.23
2022-11-30T00:12:50.225Z,4.20
2022-11-30T00:15:21.828Z,4.18
2022-11-30T00:17:57.894Z,4.12
2022-11-30T00:20:32.476Z,4.09
2022-11-30T00:23:04.116Z,4.02
2022-11-30T00:25:36.596Z,3.98
2022-11-30T00:28:11.785Z,3.91
2022-11-30T00:30:43.423Z,3.79
2022-11-30T00:33:15.044Z,3.77
2022-11-30T00:35:56.319Z,3.72
2022-11-30T00:38:28.643Z,3.70
2022-11-30T00:41:01.672Z,3.70
2022-11-30T00:43:33.359Z,3.69
2022-11-30T00:46:05.468Z,3.67
2022-11-30T00:48:38.267Z,3.69
2022-11-30T00:51:11.955Z,3.61
2022-11-30T00:53:50.155Z,3.53
2022-11-30T00:56:24.659Z,3.47
2022-11-30T00:59:00.456Z,3.49
2022-11-30T01:01:32.568Z,3.52
2022-11-30T01:04:07.602Z,3.43
2022-11-30T01:06:42.288Z,3.40
2022-11-30T01:09:16.532Z,3.41
2022-11-30T01:11:48.120Z,3.41
2022-11-30T01:14:20.102Z,3.39
2022-11-30T01:16:57.960Z,3.42
2022-11-30T01:19:30.346Z,3.41
2022-11-30T01:22:05.433Z,3.41
2022-11-30T01:24:37.084Z,3.41
2022-11-30T01:27:09.004Z,3.41
2022-11-30T01:29:40.907Z,3.42
2022-11-30T01:32:12.466Z,3.41
2022-11-30T01:34:44.300Z,3.40
2022-11-30T01:37:16.183Z,3.37
2022-11-30T01:39:47.792Z,3.36
2022-11-30T01:42:20.299Z,3.36
2022-11-30T01:44:57.369Z,3.38
2022-11-30T01:47:39.352Z,3.33
2022-11-30T01:50:37.316Z,3.32
2022-11-30T01:53:10.852Z,3.26
2022-11-30T01:55:48.552Z,3.20
2022-11-30T01:58:29.900Z,3.14
2022-11-30T02:01:01.662Z,3.11
2022-11-30T02:03:49.071Z,3.15
2022-11-30T02:06:25.125Z,3.18
2022-11-30T02:08:56.853Z,3.19
2022-11-30T02:11:28.728Z,3.21
2022-11-30T02:14:11.136Z,3.21
2022-11-30T02:16:54.664Z,3.21
2022-11-30T02:19:51.008Z,3.24
2022-11-30T02:22:50.479Z,3.24
2022-11-30T02:26:06.063Z,3.19
2022-11-30T02:28:40.349Z,3.18
2022-11-30T02:31:20.112Z,3.20
2022-11-30T02:33:53.982Z,3.18
2022-11-30T02:36:28.691Z,3.19
2022-11-30T02:39:00.932Z,3.18
2022-11-30T02:41:39.666Z,3.15
2022-11-30T02:44:12.216Z,3.16
2022-11-30T02:46:58.915Z,3.15
2022-11-30T02:49:34.383Z,3.14
2022-11-30T02:52:07.696Z,3.12
2022-11-30T02:54:42.376Z,3.09
2022-11-30T02:57:19.139Z,3.11
2022-11-30T02:59:50.980Z,3.15
2022-11-30T03:02:22.690Z,3.14
2022-11-30T03:04:54.425Z,3.08
2022-11-30T03:07:26.110Z,3.06
2022-11-30T03:09:58.844Z,3.05
2022-11-30T03:12:30.459Z,3.05
2022-11-30T03:15:04.592Z,3.05
2022-11-30T03:17:37.272Z,3.00
2022-11-30T03:20:09.877Z,2.95
2022-11-30T03:22:44.463Z,2.92
2022-11-30T03:25:16.091Z,2.97
2022-11-30T03:27:49.055Z,2.94
2022-11-30T03:30:21.023Z,2.96
2022-11-30T03:32:53.172Z,2.97
2022-11-30T03:35:27.578Z,2.98
2022-11-30T03:37:59.221Z,2.98
2022-11-30T03:40:37.636Z,2.99
2022-11-30T03:43:09.261Z,2.97
2022-11-30T03:45:44.716Z,2.99
2022-11-30T03:48:16.314Z,3.02
2022-11-30T03:50:50.066Z,3.01
2022-11-30T03:53:23.404Z,3.00
2022-11-30T03:55:57.701Z,2.98
2022-11-30T03:58:29.970Z,2.93
2022-11-30T04:01:17.250Z,2.90
2022-11-30T04:03:50.246Z,2.94
2022-11-30T04:06:22.251Z,2.98
2022-11-30T04:08:53.993Z,3.00
2022-11-30T04:11:25.992Z,2.97
2022-11-30T04:13:58.912Z,2.91
2022-11-30T04:16:30.648Z,2.90
2022-11-30T04:19:02.859Z,2.87
2022-11-30T04:21:37.188Z,2.89
2022-11-30T04:24:09.120Z,2.91
2022-11-30T04:26:46.782Z,2.92
2022-11-30T04:29:18.332Z,2.96
2022-11-30T04:31:49.950Z,3.01
2022-11-30T04:34:21.598Z,3.03
2022-11-30T04:37:00.216Z,3.04
2022-11-30T04:39:42.182Z,3.08
2022-11-30T04:42:13.806Z,3.02
2022-11-30T04:44:47.970Z,2.98
2022-11-30T04:47:19.770Z,2.98
2022-11-30T04:49:53.322Z,2.96
2022-11-30T04:52:28.898Z,2.98
2022-11-30T04:55:04.889Z,3.02
2022-11-30T04:57:36.555Z,3.06
2022-11-30T05:00:08.886Z,3.07
2022-11-30T05:02:40.525Z,3.06
2022-11-30T05:05:13.512Z,3.06
2022-11-30T05:07:57.174Z,3.08
2022-11-30T05:10:30.318Z,3.06
2022-11-30T05:13:05.202Z,2.93
2022-11-30T05:15:36.793Z,2.88
2022-11-30T05:18:20.316Z,2.91
2022-11-30T05:20:58.941Z,2.93
2022-11-30T05:23:30.535Z,2.96
2022-11-30T05:26:03.009Z,2.87
2022-11-30T05:28:37.351Z,2.85
2022-11-30T05:31:09.182Z,2.82
2022-11-30T05:33:40.952Z,2.79
2022-11-30T05:36:12.558Z,2.82
2022-11-30T05:38:44.963Z,2.79
2022-11-30T05:41:16.757Z,2.82
2022-11-30T05:43:48.464Z,2.78
2022-11-30T05:46:20.081Z,2.80
2022-11-30T05:48:51.704Z,2.82
2022-11-30T05:51:23.348Z,2.85
2022-11-30T05:54:00.199Z,2.87
2022-11-30T05:56:31.925Z,2.88
2022-11-30T05:59:05.686Z,2.89
2022-11-30T06:01:37.310Z,2.90
2022-11-30T06:04:11.170Z,2.89
2022-11-30T06:06:45.957Z,2.86
2022-11-30T06:09:17.473Z,2.79
2022-11-30T06:11:49.106Z,2.78
2022-11-30T06:14:20.743Z,2.79
2022-11-30T06:16:52.415Z,2.74
2022-11-30T06:19:25.154Z,2.71
2022-11-30T06:21:56.795Z,2.67
2022-11-30T06:24:28.412Z,2.67
2022-11-30T06:27:02.375Z,2.64
2022-11-30T06:29:34.044Z,2.64
2022-11-30T06:32:07.711Z,2.64
2022-11-30T06:34:42.413Z,2.64
2022-11-30T06:37:14.045Z,2.64
2022-11-30T06:42:39.363Z,2.65
2022-11-30T06:45:11.323Z,2.65
2022-11-30T06:47:42.897Z,2.64
2022-11-30T06:50:15.567Z,2.66
2022-11-30T06:52:47.499Z,2.67
2022-11-30T06:55:19.593Z,2.69
2022-11-30T06:57:51.163Z,2.73
2022-11-30T07:00:25.712Z,2.76
2022-11-30T07:02:57.313Z,2.75
2022-11-30T07:05:30.512Z,2.75
2022-11-30T07:08:02.346Z,2.70
2022-11-30T07:10:34.185Z,2.74
2022-11-30T07:13:05.753Z,2.79
2022-11-30T07:15:37.731Z,2.87
2022-11-30T07:18:10.393Z,2.96
2022-11-30T07:20:42.563Z,2.96
2022-11-30T07:23:33.041Z,3.05
2022-11-30T07:26:07.485Z,3.23
2022-11-30T07:28:46.144Z,3.43
2022-11-30T07:31:25.511Z,3.57
2022-11-30T07:34:01.818Z,3.79
2022-11-30T07:36:38.984Z,4.10
2022-11-30T07:39:13.682Z,4.36
2022-11-30T07:41:45.705Z,4.91
2022-11-30T07:44:17.275Z,5.67
2022-11-30T07:46:48.878Z,6.26
2022-11-30T07:49:22.646Z,6.60
2022-11-30T07:51:54.331Z,6.66
2022-11-30T07:54:28.298Z,6.97
2022-11-30T07:57:00.911Z,7.42
2022-11-30T07:59:35.555Z,7.62
2022-11-30T08:02:07.299Z,7.89
2022-11-30T08:04:41.874Z,7.98
2022-11-30T08:07:15.095Z,7.91
2022-11-30T08:09:50.609Z,7.54
2022-11-30T08:12:25.043Z,7.13
2022-11-30T08:15:19.346Z,6.75
2022-11-30T08:17:50.719Z,6.37
2022-11-30T08:20:22.757Z,5.99
2022-11-30T08:22:58.627Z,5.80
2022-11-30T08:25:31.515Z,5.64
2022-11-30T08:28:07.744Z,5.49
2022-11-30T08:30:39.985Z,5.40
2022-11-30T08:33:14.674Z,5.30
2022-11-30T08:35:46.482Z,5.33
2022-11-30T08:38:18.201Z,5.32
2022-11-30T08:40:49.813Z,5.36
2022-11-30T08:43:21.348Z,5.58
2022-11-30T08:45:54.479Z,6.13
2022-11-30T08:48:31.871Z,6.84
2022-11-30T08:51:06.693Z,7.15
2022-11-30T08:53:45.624Z,7.33
2022-11-30T08:56:27.310Z,7.11
2022-11-30T08:58:59.185Z,6.93
2022-11-30T09:01:33.313Z,6.70
2022-11-30T09:04:05.709Z,6.56
2022-11-30T09:06:38.162Z,6.39
2022-11-30T09:09:09.800Z,6.62
2022-11-30T09:11:48.484Z,7.35
2022-11-30T09:14:20.290Z,8.93
2022-11-30T09:16:54.091Z,9.61
2022-11-30T09:19:26.222Z,11.02
2022-11-30T09:21:58.069Z,11.52
2022-11-30T09:24:29.942Z,10.46
2022-11-30T09:27:14.889Z,9.31
2022-11-30T09:29:47.970Z,8.48
2022-11-30T09:32:19.615Z,8.01
2022-11-30T09:34:51.446Z,7.75
2022-11-30T09:37:23.820Z,7.60
2022-11-30T09:39:58.287Z,7.16
2022-11-30T09:42:43.517Z,6.94
2022-11-30T09:45:25.553Z,6.71
2022-11-30T09:48:32.707Z,6.92
2022-11-30T09:51:21.052Z,7.21
2022-11-30T09:54:02.405Z,7.65
2022-11-30T09:56:39.165Z,7.42
2022-11-30T09:59:26.490Z,7.35
2022-11-30T10:02:09.655Z,7.23
2022-11-30T10:04:42.315Z,7.74
2022-11-30T10:08:07.826Z,8.09
2022-11-30T10:10:43.349Z,7.98
2022-11-30T10:13:30.488Z,8.25
2022-11-30T10:16:46.440Z,9.21
2022-11-30T10:19:47.775Z,9.25
2022-11-30T10:22:53.905Z,8.65
2022-11-30T10:25:40.400Z,8.92
2022-11-30T10:28:47.731Z,8.94
2022-11-30T10:31:34.677Z,9.35
2022-11-30T10:34:32.440Z,9.26
2022-11-30T10:37:06.592Z,8.76
2022-11-30T10:40:03.026Z,8.55
2022-11-30T10:42:51.194Z,8.03
2022-11-30T10:45:24.876Z,7.54
2022-11-30T10:48:18.914Z,7.31
2022-11-30T10:50:51.686Z,6.94
2022-11-30T10:53:25.066Z,6.65
2022-11-30T10:56:16.125Z,6.37
2022-11-30T10:58:59.976Z,6.31
2022-11-30T11:01:33.988Z,6.18
2022-11-30T11:04:12.938Z,6.03
2022-11-30T11:06:57.008Z,5.93
2022-11-30T11:09:33.946Z,5.91
2022-11-30T11:12:08.580Z,5.88
2022-11-30T11:14:40.228Z,5.74
2022-11-30T11:17:26.157Z,5.67
2022-11-30T11:19:57.740Z,5.64
2022-11-30T11:22:33.626Z,5.50
2022-11-30T11:25:21.728Z,5.43
2022-11-30T11:27:56.045Z,5.37
2022-11-30T11:30:33.081Z,5.41
2022-11-30T11:33:13.788Z,5.37
2022-11-30T11:35:54.333Z,5.42
2022-11-30T11:38:28.824Z,5.36
2022-11-30T11:41:03.858Z,5.34
2022-11-30T11:44:02.609Z,5.34
2022-11-30T11:46:57.613Z,5.32
2022-11-30T11:49:32.561Z,5.29
2022-11-30T11:52:09.112Z,5.22
2022-11-30T11:55:00.708Z,5.20
2022-11-30T11:57:46.393Z,5.30
2022-11-30T12:00:21.699Z,5.27
2022-11-30T12:03:00.627Z,5.21
2022-11-30T12:05:44.191Z,5.26
2022-11-30T12:08:35.962Z,5.25
2022-11-30T12:11:29.741Z,5.31
2022-11-30T12:14:05.986Z,5.30
2022-11-30T12:17:06.923Z,5.19
2022-11-30T12:20:04.362Z,5.24
2022-11-30T12:22:38.928Z,5.25
2022-11-30T12:25:25.965Z,5.27
2022-11-30T12:28:22.556Z,5.34
2022-11-30T12:31:14.527Z,5.43
2022-11-30T12:34:14.323Z,5.49
2022-11-30T12:37:05.711Z,5.46
2022-11-30T12:39:55.712Z,5.42
2022-11-30T12:43:08.748Z,5.36
2022-11-30T12:45:54.145Z,5.27
2022-11-30T12:48:28.593Z,5.32
2022-11-30T12:51:22.838Z,5.31
2022-11-30T12:54:33.462Z,5.33
2022-11-30T12:57:27.617Z,5.27
2022-11-30T13:00:15.871Z,5.27
2022-11-30T13:03:24.807Z,5.35
2022-11-30T13:06:02.951Z,5.27
2022-11-30T13:09:06.801Z,5.28
2022-11-30T13:11:43.454Z,5.28
2022-11-30T13:14:27.693Z,5.32
2022-11-30T13:17:07.513Z,5.34
2022-11-30T13:19:56.736Z,5.24
2022-11-30T13:22:52.809Z,5.29
2022-11-30T13:26:07.018Z,5.26
2022-11-30T13:28:46.409Z,5.19
2022-11-30T13:31:44.810Z,5.10
2022-11-30T13:34:46.489Z,5.14
2022-11-30T13:37:27.255Z,5.15
2022-11-30T13:40:00.296Z,5.17
2022-11-30T13:42:51.301Z,5.13
2022-11-30T13:45:36.448Z,5.14
2022-11-30T13:48:29.605Z,5.12
2022-11-30T13:51:08.323Z,5.20
2022-11-30T13:53:43.193Z,5.24
2022-11-30T13:56:20.739Z,5.26
2022-11-30T13:59:25.891Z,5.23
2022-11-30T14:02:43.253Z,5.27
2022-11-30T14:05:17.820Z,5.30
2022-11-30T14:07:53.332Z,5.34
2022-11-30T14:10:35.564Z,5.41
2022-11-30T14:13:18.645Z,5.44
2022-11-30T14:15:50.200Z,5.36
2022-11-30T14:18:23.962Z,5.36
2022-11-30T14:21:09.325Z,5.30
2022-11-30T14:24:19.678Z,5.27
2022-11-30T14:26:52.484Z,5.16
2022-11-30T14:29:39.031Z,5.15
2022-11-30T14:32:35.170Z,5.12
2022-11-30T14:35:12.530Z,5.09
2022-11-30T14:37:53.302Z,5.10
2022-11-30T14:40:30.323Z,5.08
2022-11-30T14:43:04.018Z,5.10
2022-11-30T14:45:36.602Z,5.10
2022-11-30T14:48:13.837Z,5.13
2022-11-30T14:50:49.708Z,5.11
2022-11-30T14:53:34.730Z,5.12
2022-11-30T14:56:44.418Z,5.15
2022-11-30T14:59:47.800Z,5.09
2022-11-30T15:02:38.707Z,5.08
2022-11-30T15:05:17.786Z,5.06
2022-11-30T15:07:53.250Z,5.06
2022-11-30T15:10:39.412Z,5.10
2022-11-30T15:13:20.849Z,5.19
2022-11-30T15:15:55.745Z,5.12
2022-11-30T15:18:27.698Z,5.07
2022-11-30T15:21:04.127Z,5.03
2022-11-30T15:23:44.550Z,5.02
2022-11-30T15:26:42.393Z,5.01
2022-11-30T15:29:42.228Z,5.02
2022-11-30T15:32:23.080Z,5.07
2022-11-30T15:35:03.498Z,5.02
2022-11-30T15:37:42.951Z,5.00
2022-11-30T15:40:23.120Z,5.06
2022-11-30T15:42:54.882Z,5.01
2022-11-30T15:45:33.607Z,4.92
2022-11-30T15:48:28.203Z,4.87
2022-11-30T15:51:02.747Z,4.85
2022-11-30T15:53:48.397Z,4.78
2022-11-30T15:56:24.868Z,4.79
2022-11-30T15:59:26.715Z,4.78
2022-11-30T16:02:23.831Z,4.80
2022-11-30T16:05:01.304Z,4.80
2022-11-30T16:08:03.722Z,4.83
2022-11-30T16:10:37.995Z,4.85
2022-11-30T16:13:17.623Z,4.87
2022-11-30T16:15:52.660Z,4.80
2022-11-30T16:18:27.130Z,4.83
2022-11-30T16:21:02.474Z,4.91
2022-11-30T16:23:35.174Z,4.91
2022-11-30T16:26:28.879Z,4.95
2022-11-30T16:29:07.463Z,5.01
2022-11-30T16:31:39.300Z,5.04
2022-11-30T16:34:11.969Z,5.07
2022-11-30T16:36:46.219Z,5.13
2022-11-30T16:39:17.922Z,5.13
2022-11-30T16:41:49.752Z,5.06
2022-11-30T16:44:23.817Z,5.06
2022-11-30T16:46:58.459Z,5.10
2022-11-30T16:49:30.051Z,5.03
2022-11-30T16:52:01.640Z,5.01
2022-11-30T16:54:33.296Z,4.99
2022-11-30T16:57:04.955Z,5.00
2022-11-30T16:59:42.327Z,4.93
2022-11-30T17:02:19.422Z,4.88
2022-11-30T17:04:51.095Z,4.90
2022-11-30T17:07:22.760Z,4.86
2022-11-30T17:09:57.589Z,4.87
2022-11-30T17:12:30.218Z,4.84
2022-11-30T17:15:02.891Z,4.80
2022-11-30T17:17:34.559Z,4.77
2022-11-30T17:20:07.631Z,4.77
2022-11-30T17:23:04.971Z,4.75
2022-11-30T17:25:39.111Z,4.73
2022-11-30T17:28:10.764Z,4.73
2022-11-30T17:30:42.608Z,4.75
2022-11-30T17:33:17.217Z,4.77
2022-11-30T17:35:49.095Z,4.74
2022-11-30T17:38:20.688Z,4.72
2022-11-30T17:40:52.377Z,4.70
2022-11-30T17:43:24.231Z,4.70
2022-11-30T17:45:58.928Z,4.67
2022-11-30T17:48:32.106Z,4.62
2022-11-30T17:51:06.133Z,4.60
2022-11-30T17:53:39.119Z,4.57
2022-11-30T17:56:17.015Z,4.51
2022-11-30T17:58:50.406Z,4.48
2022-11-30T18:01:25.470Z,4.48
2022-11-30T18:03:58.095Z,4.47
2022-11-30T18:06:31.735Z,4.44
2022-11-30T18:09:03.433Z,4.40
2022-11-30T18:11:38.283Z,4.38
2022-11-30T18:14:09.796Z,4.30
2022-11-30T18:16:42.076Z,4.25
2022-11-30T18:19:16.452Z,4.24
2022-11-30T18:21:48.177Z,4.21
2022-11-30T18:24:25.749Z,4.16
2022-11-30T18:26:57.620Z,4.12
2022-11-30T18:29:33.503Z,4.09
2022-11-30T18:32:11.496Z,4.05
2022-11-30T18:34:49.075Z,4.02
2022-11-30T18:37:20.960Z,3.99
2022-11-30T18:39:52.566Z,3.94
2022-11-30T18:42:24.240Z,3.89
2022-11-30T18:44:56.136Z,3.85
2022-11-30T18:47:27.838Z,3.82
2022-11-30T18:49:59.425Z,3.81
2022-11-30T18:52:31.044Z,3.79
2022-11-30T18:55:02.698Z,3.76
2022-11-30T18:57:36.375Z,3.71
2022-11-30T19:00:08.927Z,3.69
2022-11-30T19:02:40.598Z,3.65
2022-11-30T19:05:31.445Z,3.64
2022-11-30T19:08:08.756Z,3.61
2022-11-30T19:10:41.445Z,3.57
2022-11-30T19:13:13.037Z,3.54
2022-11-30T19:15:47.095Z,3.53
2022-11-30T19:18:23.001Z,3.50
2022-11-30T19:20:54.968Z,3.48
2022-11-30T19:23:27.802Z,3.48
2022-11-30T19:26:01.482Z,3.48
2022-11-30T19:28:38.045Z,3.46
2022-11-30T19:31:15.052Z,3.47
2022-11-30T19:33:54.288Z,3.45
2022-11-30T19:36:33.111Z,3.43
2022-11-30T19:39:07.669Z,3.40
2022-11-30T19:41:39.469Z,3.37
2022-11-30T19:44:17.177Z,3.36
2022-11-30T19:46:49.022Z,3.34
2022-11-30T19:49:20.646Z,3.32
2022-11-30T19:51:52.353Z,3.32
2022-11-30T19:54:24.232Z,3.32
2022-11-30T19:57:00.577Z,3.30
2022-11-30T19:59:35.089Z,3.31
2022-11-30T20:02:07.800Z,3.29
2022-11-30T20:04:39.923Z,3.28
2022-11-30T20:07:11.558Z,3.26
2022-11-30T20:09:43.219Z,3.25
2022-11-30T20:12:17.708Z,3.21
2022-11-30T20:14:52.238Z,3.15
2022-11-30T20:17:26.746Z,3.16
2022-11-30T20:19:58.484Z,3.16
2022-11-30T20:22:36.064Z,3.17
2022-11-30T20:25:08.002Z,3.17
2022-11-30T20:27:39.672Z,3.15
2022-11-30T20:30:11.494Z,3.16
2022-11-30T20:32:43.834Z,3.14
2022-11-30T20:35:15.533Z,3.13
2022-11-30T20:37:47.191Z,3.13
2022-11-30T20:40:18.916Z,3.11
2022-11-30T20:42:51.634Z,3.10
2022-11-30T20:45:23.526Z,3.07
2022-11-30T20:47:55.433Z,3.04
2022-11-30T20:50:27.032Z,3.04
2022-11-30T20:52:58.600Z,3.04
2022-11-30T20:55:30.276Z,3.05
2022-11-30T20:58:01.903Z,3.04
2022-11-30T21:00:36.273Z,3.02
2022-11-30T21:03:09.973Z,3.00
2022-11-30T21:05:41.678Z,2.99
2022-11-30T21:08:13.355Z,2.97
2022-11-30T21:10:44.966Z,2.95
2022-11-30T21:13:16.654Z,2.94
2022-11-30T21:15:48.366Z,2.96
2022-11-30T21:18:19.945Z,2.95
2022-11-30T21:20:54.314Z,2.95
2022-11-30T21:23:28.915Z,2.94
2022-11-30T21:26:05.337Z,2.97
2022-11-30T21:28:39.803Z,2.95
2022-11-30T21:31:13.170Z,2.96
2022-11-30T21:33:52.464Z,2.99
2022-11-30T21:36:27.411Z,3.01
2022-11-30T21:39:06.675Z,3.03
2022-11-30T21:41:39.825Z,3.00
2022-11-30T21:44:14.068Z,2.99
2022-11-30T21:46:51.652Z,2.97
2022-11-30T21:49:23.938Z,2.95
2022-11-30T21:51:55.738Z,2.92
2022-11-30T21:54:31.921Z,2.95
2022-11-30T21:57:03.857Z,2.97
2022-11-30T21:59:35.478Z,2.94
2022-11-30T22:02:11.440Z,2.95
2022-11-30T22:04:43.158Z,2.92
2022-11-30T22:07:14.777Z,2.91
2022-11-30T22:09:46.488Z,2.90
2022-11-30T22:12:25.589Z,2.89
2022-11-30T22:15:01.245Z,2.90
2022-11-30T22:17:32.890Z,2.89
2022-11-30T22:20:09.438Z,2.88
2022-11-30T22:22:41.037Z,2.87
2022-11-30T22:25:12.648Z,2.87
2022-11-30T22:27:44.231Z,2.88
2022-11-30T22:30:16.021Z,2.86
2022-11-30T22:32:51.829Z,2.86
2022-11-30T22:35:23.418Z,2.86
2022-11-30T22:37:56.145Z,2.84
2022-11-30T22:40:29.738Z,2.85
2022-11-30T22:43:01.601Z,2.84
2022-11-30T22:45:33.319Z,2.85
2022-11-30T22:48:05.192Z,2.82
2022-11-30T22:50:36.856Z,2.81
2022-11-30T22:53:08.447Z,2.80
2022-11-30T22:55:43.732Z,2.78
2022-11-30T22:58:18.311Z,2.80
2022-11-30T23:00:49.902Z,2.81
2022-11-30T23:03:30.415Z,2.81
2022-11-30T23:06:02.709Z,2.82
2022-11-30T23:08:37.279Z,2.83
2022-11-30T23:11:11.505Z,2.86
2022-11-30T23:13:46.657Z,2.88
2022-11-30T23:16:19.009Z,2.87
2022-11-30T23:18:54.693Z,2.89
2022-11-30T23:21:37.380Z,2.92
2022-11-30T23:24:23.860Z,2.94
2022-11-30T23:26:55.465Z,2.96
2022-11-30T23:29:27.099Z,2.98
2022-11-30T23:32:00.807Z,2.98
2022-11-30T23:34:32.452Z,2.96
2022-11-30T23:37:06.189Z,2.97
2022-11-30T23:39:40.607Z,2.99
2022-11-30T23:42:12.221Z,2.99
2022-11-30T23:44:43.814Z,3.02
2022-11-30T23:47:18.698Z,3.04
2022-11-30T23:49:50.738Z,3.06
2022-11-30T23:52:22.450Z,3.09
2022-11-30T23:54:54.120Z,3.08
2022-11-30T23:57:28.508Z,3.08
